Time;durP1;ratioP1;P1;durP2;ratioP2;P2;SDS_P1;SDS_P2;PMS_P1;PMS_P2;Temp;Humidity;BMP_temperature;BMP_pressure;BME280_temperature;BME280_humidity;BME280_pressure;Samples;Min_cycle;Max_cycle;Signal;HPM_P1;HPM_P2
2023/08/04 00:00:09;;;;;;;1.98;1.20;;;16.70;99.90;;;;;;4964018;28;20216;-85
2023/08/04 00:02:39;;;;;;;1.77;1.20;;;16.70;99.90;;;;;;4967351;28;20735;-84
2023/08/04 00:05:08;;;;;;;3.88;1.23;;;16.70;99.90;;;;;;4967592;28;20249;-83
2023/08/04 00:07:36;;;;;;;2.15;1.35;;;16.70;99.90;;;;;;4966855;28;20188;-85
2023/08/04 00:10:04;;;;;;;2.05;1.45;;;16.50;99.90;;;;;;4966920;28;20196;-83
2023/08/04 00:12:32;;;;;;;3.97;1.63;;;16.40;99.90;;;;;;4966261;28;20200;-85
2023/08/04 00:14:59;;;;;;;4.07;1.60;;;16.40;99.90;;;;;;4966931;28;20184;-85
2023/08/04 00:17:27;;;;;;;2.95;1.30;;;16.40;99.90;;;;;;4967667;28;20682;-83
2023/08/04 00:19:55;;;;;;;4.60;1.42;;;16.50;99.90;;;;;;4965863;28;20204;-83
2023/08/04 00:22:23;;;;;;;1.98;1.30;;;16.50;99.90;;;;;;4965828;28;20184;-84
2023/08/04 00:24:50;;;;;;;4.18;1.60;;;16.50;99.90;;;;;;4963423;28;20185;-84
2023/08/04 00:27:18;;;;;;;2.35;1.30;;;16.50;99.90;;;;;;4961185;28;20605;-84
2023/08/04 00:29:45;;;;;;;6.30;1.40;;;16.50;99.90;;;;;;4965859;28;20199;-84
2023/08/04 00:32:13;;;;;;;2.58;1.30;;;16.40;99.90;;;;;;4966348;28;20200;-83
2023/08/04 00:34:40;;;;;;;3.33;1.40;;;16.40;99.90;;;;;;4965251;28;20689;-84
2023/08/04 00:37:08;;;;;;;3.70;1.40;;;16.40;99.90;;;;;;4967261;28;20232;-84
2023/08/04 00:39:35;;;;;;;2.58;1.27;;;16.30;99.90;;;;;;4966115;28;20223;-84
2023/08/04 00:42:03;;;;;;;2.72;1.42;;;16.40;99.90;;;;;;4966419;28;20197;-85
2023/08/04 00:44:31;;;;;;;1.30;1.13;;;16.40;99.90;;;;;;4946058;28;20237;-84
2023/08/04 00:46:59;;;;;;;2.70;1.58;;;16.30;99.90;;;;;;4960978;28;20211;-83
2023/08/04 00:49:26;;;;;;;2.47;1.58;;;16.30;99.90;;;;;;4966857;28;20289;-85
2023/08/04 00:51:54;;;;;;;2.47;1.40;;;16.20;99.90;;;;;;4965872;28;20192;-83
2023/08/04 00:54:22;;;;;;;3.70;1.50;;;16.30;99.90;;;;;;4966150;28;20192;-83
2023/08/04 00:56:54;;;;;;;3.30;1.50;;;16.30;99.90;;;;;;4965923;28;20245;-84
2023/08/04 00:59:21;;;;;;;4.00;1.50;;;16.20;99.90;;;;;;4965919;28;20315;-85
2023/08/04 01:01:49;;;;;;;3.03;1.23;;;16.20;99.90;;;;;;4965267;28;20195;-84
2023/08/04 01:04:19;;;;;;;2.92;1.60;;;16.20;99.90;;;;;;4964765;28;20191;-84
2023/08/04 01:06:56;;;;;;;4.28;1.52;;;16.20;99.90;;;;;;4966231;28;20192;-85
2023/08/04 01:09:23;;;;;;;3.20;1.88;;;16.10;99.90;;;;;;4959549;28;20210;-82
2023/08/04 01:12:05;;;;;;;2.40;1.55;;;16.10;99.90;;;;;;4965466;28;20534;-84
2023/08/04 01:14:37;;;;;;;3.22;1.63;;;16.20;99.90;;;;;;4965572;28;20216;-83
2023/08/04 01:17:27;;;;;;;3.88;2.17;;;16.20;99.90;;;;;;4966015;28;20233;-85
2023/08/04 01:19:56;;;;;;;5.82;1.95;;;16.10;99.90;;;;;;4958003;28;20277;-85
2023/08/04 01:22:25;;;;;;;4.32;1.90;;;16.10;99.90;;;;;;4962478;28;20568;-84
2023/08/04 01:24:54;;;;;;;3.47;1.75;;;16.10;99.90;;;;;;4972085;28;20314;-86
2023/08/04 01:27:33;;;;;;;2.85;1.50;;;16.00;99.90;;;;;;4965851;28;20188;-84
2023/08/04 01:30:03;;;;;;;2.58;1.80;;;15.90;99.90;;;;;;4964650;28;20195;-84
2023/08/04 01:32:32;;;;;;;2.30;1.77;;;16.00;99.90;;;;;;4962846;28;20666;-85
2023/08/04 01:34:59;;;;;;;2.90;1.90;;;16.10;99.90;;;;;;4963928;28;20211;-84
2023/08/04 01:37:27;;;;;;;3.60;2.03;;;16.10;99.90;;;;;;4964059;28;20238;-81
2023/08/04 01:39:54;;;;;;;2.17;1.73;;;16.00;99.90;;;;;;4964986;28;20224;-84
2023/08/04 01:42:22;;;;;;;3.22;1.63;;;16.10;99.90;;;;;;4964338;28;20221;-83
2023/08/04 01:44:49;;;;;;;3.60;1.90;;;16.20;99.90;;;;;;4963836;28;20282;-85
2023/08/04 01:47:17;;;;;;;5.68;1.60;;;16.10;99.90;;;;;;4954149;28;20188;-84
2023/08/04 01:49:45;;;;;;;6.03;1.98;;;16.20;99.90;;;;;;4971389;28;20211;-85
2023/08/04 01:52:14;;;;;;;6.20;2.15;;;16.20;99.90;;;;;;4971852;28;20200;-85
2023/08/04 01:54:41;;;;;;;4.82;2.25;;;16.10;99.90;;;;;;4949949;28;20209;-85
2023/08/04 01:57:09;;;;;;;4.68;1.92;;;16.00;99.90;;;;;;4959624;28;20299;-85
2023/08/04 01:59:36;;;;;;;4.60;2.05;;;15.90;99.90;;;;;;4964561;28;20220;-83
2023/08/04 02:02:04;;;;;;;3.10;2.00;;;15.90;99.90;;;;;;4949020;28;20204;-84
2023/08/04 02:04:31;;;;;;;3.83;1.80;;;15.90;99.90;;;;;;4963955;28;20713;-85
2023/08/04 02:06:59;;;;;;;3.75;2.00;;;16.00;99.90;;;;;;4963272;28;20203;-84
2023/08/04 02:09:28;;;;;;;4.47;1.92;;;16.00;99.90;;;;;;4963233;28;20204;-83
2023/08/04 02:11:57;;;;;;;3.33;1.77;;;16.10;99.90;;;;;;4963096;28;20250;-84
2023/08/04 02:14:29;;;;;;;6.45;2.13;;;16.10;99.90;;;;;;4964737;28;20377;-85
2023/08/04 02:16:56;;;;;;;6.07;2.20;;;15.90;99.90;;;;;;4970353;28;20196;-83
2023/08/04 02:19:24;;;;;;;3.75;2.10;;;15.90;99.90;;;;;;5007718;28;20211;-83
2023/08/04 02:21:52;;;;;;;3.30;2.10;;;16.00;99.90;;;;;;4963095;28;20645;-85
2023/08/04 02:24:19;;;;;;;5.68;2.30;;;15.90;99.90;;;;;;4965628;28;20227;-82
2023/08/04 02:26:47;;;;;;;4.70;2.13;;;15.90;99.90;;;;;;4965023;28;20184;-84
2023/08/04 02:29:14;;;;;;;5.97;2.20;;;15.90;99.90;;;;;;4971544;28;20219;-83
2023/08/04 02:31:43;;;;;;;6.97;2.85;;;15.90;99.90;;;;;;4963159;28;20188;-85
2023/08/04 02:34:10;;;;;;;5.10;2.20;;;16.00;99.90;;;;;;4964780;28;20192;-81
2023/08/04 02:36:38;;;;;;;2.33;1.70;;;16.00;99.90;;;;;;4971591;28;20184;-85
2023/08/04 02:39:05;;;;;;;5.65;2.40;;;16.00;99.90;;;;;;4963628;28;20780;-86
2023/08/04 02:41:33;;;;;;;4.13;2.28;;;15.90;99.90;;;;;;4964661;28;20192;-82
2023/08/04 02:44:03;;;;;;;5.68;2.47;;;15.80;99.90;;;;;;4965134;28;20206;-85
2023/08/04 02:46:32;;;;;;;5.28;2.83;;;15.90;99.90;;;;;;4963748;28;20219;-83
2023/08/04 02:49:02;;;;;;;4.20;2.50;;;16.00;99.90;;;;;;4964371;28;20601;-83
2023/08/04 02:51:30;;;;;;;4.97;2.45;;;15.80;99.90;;;;;;4961243;28;20196;-85
2023/08/04 02:53:58;;;;;;;4.22;2.58;;;15.80;99.90;;;;;;4965815;28;20196;-85
2023/08/04 02:56:25;;;;;;;6.68;2.65;;;15.70;99.90;;;;;;4967774;28;20199;-84
2023/08/04 02:58:53;;;;;;;4.65;2.78;;;15.70;99.90;;;;;;4968090;28;20200;-83
2023/08/04 03:01:20;;;;;;;4.78;2.60;;;15.70;99.90;;;;;;4967693;28;20180;-85
2023/08/04 03:03:48;;;;;;;3.40;1.92;;;15.80;99.90;;;;;;4967641;28;20192;-82
2023/08/04 03:06:16;;;;;;;6.55;2.45;;;15.70;99.90;;;;;;4967984;28;20290;-83
2023/08/04 03:08:43;;;;;;;9.25;3.17;;;15.70;99.90;;;;;;4966972;28;20191;-84
2023/08/04 03:11:11;;;;;;;6.82;2.78;;;15.80;99.90;;;;;;4967492;28;20234;-84
2023/08/04 03:13:39;;;;;;;6.35;2.00;;;15.70;99.90;;;;;;4967463;28;20196;-84
2023/08/04 03:16:07;;;;;;;4.93;2.55;;;15.70;99.90;;;;;;4966209;28;20721;-83
2023/08/04 03:18:34;;;;;;;3.60;2.13;;;15.70;99.90;;;;;;4966773;28;20269;-83
2023/08/04 03:21:02;;;;;;;5.15;2.45;;;15.70;99.90;;;;;;4967393;28;20245;-85
2023/08/04 03:23:31;;;;;;;6.07;2.88;;;15.70;99.90;;;;;;4963263;28;20188;-81
2023/08/04 03:25:58;;;;;;;6.00;3.00;;;15.70;99.90;;;;;;4966227;28;20662;-84
2023/08/04 03:28:26;;;;;;;5.28;2.63;;;15.60;99.90;;;;;;4968203;28;20257;-82
2023/08/04 03:30:53;;;;;;;4.18;2.25;;;15.50;99.90;;;;;;4966022;28;20196;-83
2023/08/04 03:33:21;;;;;;;6.40;2.35;;;15.60;99.90;;;;;;4966190;28;20737;-81
2023/08/04 03:35:48;;;;;;;4.38;2.63;;;15.60;99.90;;;;;;4950421;28;20214;-84
2023/08/04 03:38:16;;;;;;;3.92;2.60;;;15.70;99.90;;;;;;4966585;28;20232;-85
2023/08/04 03:40:44;;;;;;;6.22;2.70;;;15.70;99.90;;;;;;4966271;28;20601;-82
2023/08/04 03:43:11;;;;;;;5.45;2.67;;;15.70;99.90;;;;;;4966965;28;20195;-84
2023/08/04 03:45:39;;;;;;;8.13;2.75;;;15.70;99.90;;;;;;4967119;28;20188;-85
2023/08/04 03:48:06;;;;;;;5.78;2.80;;;15.50;99.90;;;;;;4967042;28;20249;-85
2023/08/04 03:50:34;;;;;;;4.35;2.40;;;15.50;99.90;;;;;;4968513;28;20192;-85
2023/08/04 03:53:02;;;;;;;4.75;2.63;;;15.40;99.90;;;;;;4967062;28;20261;-83
2023/08/04 03:55:29;;;;;;;6.25;2.85;;;15.50;99.90;;;;;;4966580;28;21022;-85
2023/08/04 03:58:00;;;;;;;4.28;2.63;;;15.40;99.90;;;;;;4966382;28;20195;-83
2023/08/04 04:00:27;;;;;;;8.18;3.88;;;15.40;99.90;;;;;;4967348;28;20208;-84
2023/08/04 04:02:55;;;;;;;5.93;3.10;;;15.40;99.90;;;;;;4967520;28;20237;-82
2023/08/04 04:05:22;;;;;;;5.55;3.00;;;15.40;99.90;;;;;;4966160;28;20219;-83
2023/08/04 04:07:52;;;;;;;5.05;3.13;;;15.40;99.90;;;;;;4966947;28;20223;-85
2023/08/04 04:10:19;;;;;;;4.53;2.80;;;15.40;99.90;;;;;;4967293;28;20566;-81
2023/08/04 04:12:48;;;;;;;4.88;2.70;;;15.30;99.90;;;;;;4967700;28;20218;-85
2023/08/04 04:15:15;;;;;;;6.57;2.80;;;15.30;99.90;;;;;;4966482;28;20680;-82
2023/08/04 04:17:43;;;;;;;6.90;2.88;;;15.40;99.90;;;;;;4962122;28;20761;-83
2023/08/04 04:20:10;;;;;;;7.47;3.42;;;15.30;99.90;;;;;;4966491;28;20746;-82
2023/08/04 04:22:38;;;;;;;7.13;2.95;;;15.30;99.90;;;;;;4966860;28;20253;-84
2023/08/04 04:25:06;;;;;;;5.78;3.08;;;15.40;99.90;;;;;;4960631;28;20275;-84
2023/08/04 04:27:34;;;;;;;6.90;3.08;;;15.40;99.90;;;;;;4966158;28;20261;-82
2023/08/04 04:30:01;;;;;;;4.85;2.80;;;15.50;99.90;;;;;;4962850;28;20188;-84
2023/08/04 04:32:29;;;;;;;9.00;3.28;;;15.40;99.90;;;;;;4966358;28;20210;-84
2023/08/04 04:34:57;;;;;;;5.78;3.40;;;15.50;99.90;;;;;;4965296;28;20184;-82
2023/08/04 04:37:25;;;;;;;7.50;3.60;;;15.50;99.90;;;;;;4957565;28;20721;-84
2023/08/04 04:39:53;;;;;;;4.43;2.75;;;15.50;99.90;;;;;;4962201;28;20234;-82
2023/08/04 04:42:21;;;;;;;5.53;2.97;;;15.60;99.90;;;;;;4958030;28;20266;-83
2023/08/04 04:44:48;;;;;;;6.18;3.30;;;15.60;99.90;;;;;;4959333;28;20926;-86
2023/08/04 04:47:16;;;;;;;7.63;3.17;;;15.60;99.90;;;;;;4954203;28;20639;-84
2023/08/04 04:49:44;;;;;;;4.90;2.50;;;15.70;99.90;;;;;;4957676;28;20412;-85
2023/08/04 04:52:18;;;;;;;7.38;3.20;;;15.80;99.90;;;;;;4960674;28;20287;-81
2023/08/04 04:54:47;;;;;;;6.25;3.03;;;15.80;99.90;;;;;;4960649;28;20857;-83
2023/08/04 04:57:15;;;;;;;8.85;3.10;;;15.90;99.90;;;;;;4959704;28;20251;-82
2023/08/04 04:59:42;;;;;;;8.75;3.55;;;16.00;99.90;;;;;;4969812;28;20696;-85
2023/08/04 05:02:10;;;;;;;8.15;3.10;;;16.00;99.90;;;;;;4960918;28;20188;-84
2023/08/04 05:04:37;;;;;;;10.68;3.63;;;16.00;99.90;;;;;;4958026;28;20199;-84
2023/08/04 05:07:05;;;;;;;6.97;3.17;;;16.00;99.90;;;;;;4962985;28;20221;-82
2023/08/04 05:09:33;;;;;;;4.75;2.90;;;16.10;99.90;;;;;;4958097;28;20220;-81
2023/08/04 05:12:01;;;;;;;9.43;3.58;;;16.10;99.90;;;;;;4960633;28;20586;-82
2023/08/04 05:14:30;;;;;;;7.95;3.53;;;16.10;99.90;;;;;;4955975;28;20200;-84
2023/08/04 05:16:58;;;;;;;7.22;2.70;;;16.10;99.90;;;;;;4954460;28;20192;-84
2023/08/04 05:19:25;;;;;;;7.18;2.63;;;16.20;99.90;;;;;;4957738;28;20271;-84
2023/08/04 05:21:55;;;;;;;7.15;2.95;;;16.30;99.90;;;;;;4957407;28;20215;-82
2023/08/04 05:24:23;;;;;;;5.38;3.00;;;16.30;99.90;;;;;;4955244;28;20192;-83
2023/08/04 05:26:53;;;;;;;5.45;2.90;;;16.40;99.90;;;;;;4959634;28;20289;-84
2023/08/04 05:29:21;;;;;;;6.47;2.90;;;16.40;99.90;;;;;;4954829;28;20569;-83
2023/08/04 05:31:48;;;;;;;7.22;3.45;;;16.50;99.90;;;;;;4964374;28;20823;-86
2023/08/04 05:34:16;;;;;;;7.55;2.45;;;16.50;99.90;;;;;;4962574;28;20188;-85
2023/08/04 05:36:44;;;;;;;4.70;2.28;;;16.60;99.90;;;;;;4957781;28;20188;-83
2023/08/04 05:39:11;;;;;;;5.53;2.67;;;16.70;99.90;;;;;;4962936;28;20924;-84
2023/08/04 05:41:39;;;;;;;6.03;2.60;;;16.70;99.90;;;;;;4961739;28;20236;-85
2023/08/04 05:44:08;;;;;;;5.93;3.10;;;16.70;99.90;;;;;;4962697;28;20554;-82
2023/08/04 05:46:37;;;;;;;6.80;3.10;;;16.70;99.90;;;;;;4962974;28;20192;-82
2023/08/04 05:49:05;;;;;;;6.43;2.70;;;16.70;99.90;;;;;;4961788;28;20188;-85
2023/08/04 05:51:33;;;;;;;7.20;3.47;;;16.80;99.90;;;;;;4959994;28;20498;-84
2023/08/04 05:54:00;;;;;;;6.10;2.47;;;16.70;99.90;;;;;;4964518;28;20271;-83
2023/08/04 05:56:28;;;;;;;6.03;2.72;;;16.70;99.90;;;;;;4965040;28;20192;-83
2023/08/04 05:58:56;;;;;;;9.60;2.40;;;16.80;99.90;;;;;;4960511;28;20671;-83
2023/08/04 06:01:27;;;;;;;3.78;2.33;;;16.80;99.90;;;;;;4976627;28;20236;-84
2023/08/04 06:03:56;;;;;;;9.82;2.70;;;16.90;99.90;;;;;;4962341;28;20254;-82
2023/08/04 06:06:25;;;;;;;5.35;2.58;;;16.90;99.90;;;;;;4960876;28;20189;-83
2023/08/04 06:08:52;;;;;;;4.07;2.40;;;17.00;99.90;;;;;;4974015;28;20660;-82
2023/08/04 06:11:21;;;;;;;4.70;2.38;;;17.00;99.90;;;;;;4962272;28;20227;-84
2023/08/04 06:13:48;;;;;;;5.63;2.40;;;17.10;99.90;;;;;;4962090;28;20197;-85
2023/08/04 06:16:16;;;;;;;3.88;2.22;;;17.10;99.90;;;;;;4960662;28;20195;-84
2023/08/04 06:18:45;;;;;;;3.33;1.85;;;17.10;99.90;;;;;;4961761;28;20275;-85
2023/08/04 06:21:14;;;;;;;5.03;2.10;;;17.10;99.90;;;;;;4953020;28;20240;-84
2023/08/04 06:23:45;;;;;;;7.95;1.83;;;17.30;99.90;;;;;;4955716;28;20322;-84
2023/08/04 06:26:13;;;;;;;4.32;2.08;;;17.30;99.90;;;;;;4961438;28;20211;-86
2023/08/04 06:28:41;;;;;;;5.00;1.73;;;17.40;99.90;;;;;;4964051;28;20519;-83
2023/08/04 06:31:08;;;;;;;4.28;2.00;;;17.50;99.90;;;;;;4961316;28;20275;-83
2023/08/04 06:33:36;;;;;;;3.85;1.90;;;17.50;99.90;;;;;;4964764;28;20194;-84
2023/08/04 06:36:04;;;;;;;6.38;2.20;;;17.50;99.90;;;;;;4965506;28;20196;-83
2023/08/04 06:38:31;;;;;;;5.53;1.70;;;17.70;99.90;;;;;;4948947;28;20282;-83
2023/08/04 06:41:02;;;;;;;3.92;2.03;;;17.70;99.90;;;;;;4957952;28;20200;-84
2023/08/04 06:43:30;;;;;;;5.05;1.80;;;17.90;99.90;;;;;;4971322;28;20200;-83
2023/08/04 06:45:58;;;;;;;3.47;1.63;;;18.00;99.90;;;;;;4963028;28;20184;-85
2023/08/04 06:48:26;;;;;;;3.80;1.63;;;18.10;99.90;;;;;;4960165;28;20884;-83
2023/08/04 06:50:55;;;;;;;4.50;1.50;;;18.20;99.90;;;;;;4971108;28;20249;-83
2023/08/04 06:53:24;;;;;;;2.58;1.63;;;18.10;99.90;;;;;;4946019;28;20366;-84
2023/08/04 06:55:52;;;;;;;2.95;1.58;;;18.20;99.90;;;;;;4958466;28;20197;-83
2023/08/04 06:58:21;;;;;;;3.53;1.55;;;18.20;99.90;;;;;;5006199;28;20274;-84
2023/08/04 07:00:48;;;;;;;3.17;1.52;;;18.20;99.90;;;;;;4968222;28;20226;-83
2023/08/04 07:03:16;;;;;;;2.80;1.67;;;18.20;99.90;;;;;;4945471;28;20319;-84
2023/08/04 07:05:45;;;;;;;4.43;1.75;;;18.30;99.90;;;;;;4960364;28;20184;-86
2023/08/04 07:08:12;;;;;;;5.93;1.90;;;18.40;99.90;;;;;;4964624;28;20207;-84
2023/08/04 07:10:41;;;;;;;3.60;1.75;;;18.40;99.90;;;;;;4947515;28;20197;-84
2023/08/04 07:13:08;;;;;;;6.05;2.25;;;18.40;99.90;;;;;;4958738;28;20491;-83
2023/08/04 07:15:36;;;;;;;2.55;1.48;;;18.40;99.90;;;;;;4963089;28;20253;-85
2023/08/04 07:18:04;;;;;;;3.25;1.70;;;18.40;99.90;;;;;;4961194;28;20224;-84
2023/08/04 07:20:32;;;;;;;3.72;1.50;;;18.40;99.90;;;;;;4962279;28;20710;-82
2023/08/04 07:22:59;;;;;;;7.05;1.65;;;18.40;99.90;;;;;;4962434;28;20202;-84
2023/08/04 07:25:28;;;;;;;3.92;1.67;;;18.50;99.90;;;;;;4963598;28;20279;-80
2023/08/04 07:27:57;;;;;;;3.72;1.50;;;18.60;99.90;;;;;;4964669;28;20851;-83
2023/08/04 07:30:24;;;;;;;4.65;1.60;;;18.50;99.90;;;;;;4959094;28;20205;-86
2023/08/04 07:32:52;;;;;;;3.53;1.60;;;18.60;99.90;;;;;;4963672;28;20191;-83
2023/08/04 07:35:20;;;;;;;7.43;1.58;;;18.60;99.90;;;;;;4963945;28;20348;-83
2023/08/04 07:37:49;;;;;;;3.55;1.58;;;18.60;99.90;;;;;;4963977;28;20627;-82
2023/08/04 07:40:17;;;;;;;3.65;1.40;;;18.80;99.90;;;;;;4969157;28;20615;-86
2023/08/04 07:42:44;;;;;;;4.43;1.55;;;18.80;99.90;;;;;;4965314;28;20269;-81
2023/08/04 07:45:12;;;;;;;9.00;1.40;;;18.90;99.90;;;;;;4962034;28;20196;-84
2023/08/04 07:47:41;;;;;;;4.82;1.67;;;18.90;99.90;;;;;;4963056;28;20181;-84
2023/08/04 07:50:08;;;;;;;9.30;1.58;;;18.90;99.90;;;;;;4977327;28;20219;-85
2023/08/04 07:52:36;;;;;;;5.07;1.40;;;18.90;99.90;;;;;;4964901;28;20220;-82
2023/08/04 07:55:04;;;;;;;3.67;1.50;;;19.10;99.90;;;;;;4966454;28;20291;-84
2023/08/04 07:57:32;;;;;;;2.55;1.38;;;19.20;99.90;;;;;;4970516;28;20273;-83
2023/08/04 08:00:00;;;;;;;3.20;1.45;;;19.30;99.90;;;;;;4964717;28;20188;-84
2023/08/04 08:02:30;;;;;;;7.07;1.60;;;19.20;99.90;;;;;;4964952;28;20192;-83
2023/08/04 08:04:58;;;;;;;3.22;1.20;;;19.20;99.90;;;;;;4965325;28;21003;-83
2023/08/04 08:07:25;;;;;;;3.22;1.40;;;19.10;99.90;;;;;;4965158;28;20188;-82
2023/08/04 08:10:10;;;;;;;7.30;1.88;;;19.10;99.90;;;;;;4965108;28;20196;-83
2023/08/04 08:12:37;;;;;;;4.30;1.27;;;19.10;99.90;;;;;;4965173;28;20199;-82
2023/08/04 08:15:05;;;;;;;2.92;1.50;;;19.10;99.90;;;;;;4966784;28;20192;-84
2023/08/04 08:17:33;;;;;;;3.00;1.25;;;19.10;99.90;;;;;;4965875;28;20219;-82
2023/08/04 08:20:01;;;;;;;4.53;1.50;;;19.00;99.90;;;;;;4962063;28;20283;-81
2023/08/04 08:22:29;;;;;;;4.30;1.65;;;19.00;99.90;;;;;;4975378;28;20556;-83
2023/08/04 08:24:56;;;;;;;5.63;1.45;;;19.00;99.90;;;;;;4965825;28;20195;-83
2023/08/04 08:27:24;;;;;;;3.72;1.42;;;19.00;99.90;;;;;;4965082;28;20666;-84
2023/08/04 08:29:54;;;;;;;2.25;1.65;;;18.90;99.90;;;;;;4966480;28;20188;-84
2023/08/04 08:32:22;;;;;;;3.15;1.63;;;18.80;99.90;;;;;;4966080;28;20278;-81
2023/08/04 08:34:50;;;;;;;2.60;1.50;;;18.80;99.90;;;;;;4960159;28;20200;-83
2023/08/04 08:37:19;;;;;;;4.85;1.50;;;18.80;99.90;;;;;;4964216;28;21004;-84
2023/08/04 08:39:52;;;;;;;3.00;1.58;;;18.90;99.90;;;;;;4964242;28;20216;-82
2023/08/04 08:42:19;;;;;;;3.38;1.50;;;19.00;99.90;;;;;;4964011;28;20551;-82
2023/08/04 08:44:47;;;;;;;4.30;1.35;;;19.10;99.90;;;;;;4966051;28;20271;-82
2023/08/04 08:47:20;;;;;;;3.22;1.42;;;19.30;99.90;;;;;;4965210;28;20212;-82
2023/08/04 08:49:55;;;;;;;2.00;1.30;;;19.40;99.90;;;;;;4964987;28;20265;-81
2023/08/04 08:52:25;;;;;;;3.35;1.50;;;19.50;99.90;;;;;;4957829;28;20189;-83
2023/08/04 08:54:55;;;;;;;5.40;1.60;;;19.30;99.90;;;;;;4966524;28;20191;-82
2023/08/04 08:57:23;;;;;;;4.30;1.60;;;19.20;99.90;;;;;;4964383;28;20192;-83
2023/08/04 08:59:52;;;;;;;5.65;1.63;;;19.10;99.90;;;;;;4972214;28;20202;-83
2023/08/04 09:02:20;;;;;;;6.10;1.58;;;19.10;99.90;;;;;;4965876;28;20219;-84
2023/08/04 09:04:47;;;;;;;2.85;1.45;;;19.10;99.90;;;;;;4961486;28;20296;-82
2023/08/04 09:07:15;;;;;;;4.88;1.52;;;19.10;99.90;;;;;;4965801;28;20195;-81
2023/08/04 09:09:43;;;;;;;6.82;1.33;;;19.10;99.90;;;;;;4966142;28;20933;-84
2023/08/04 09:12:11;;;;;;;10.25;2.17;;;19.40;99.90;;;;;;4966247;28;20249;-84
2023/08/04 09:14:56;;;;;;;3.50;1.50;;;19.60;99.90;;;;;;4946471;28;20200;-82
2023/08/04 09:17:50;;;;;;;5.43;1.70;;;19.90;99.90;;;;;;4962775;28;20191;-85
2023/08/04 09:20:29;;;;;;;7.05;1.17;;;20.30;99.90;;;;;;4967362;28;20207;-84
2023/08/04 09:22:57;;;;;;;1.52;0.95;;;20.00;99.90;;;;;;4965994;28;20194;-84
2023/08/04 09:25:24;;;;;;;3.83;1.50;;;19.90;99.90;;;;;;4965446;28;20208;-84
2023/08/04 09:27:52;;;;;;;4.05;1.30;;;20.20;99.90;;;;;;4962663;28;20199;-84
2023/08/04 09:30:20;;;;;;;3.47;1.40;;;20.10;99.90;;;;;;4967773;28;20215;-81
2023/08/04 09:32:52;;;;;;;4.13;1.17;;;19.90;99.90;;;;;;4962117;28;20228;-81
2023/08/04 09:35:20;;;;;;;2.55;1.15;;;19.70;99.90;;;;;;4953515;28;20952;-83
2023/08/04 09:37:47;;;;;;;2.30;1.20;;;19.50;99.90;;;;;;4964940;28;20232;-83
2023/08/04 09:40:19;;;;;;;1.95;1.20;;;19.50;99.90;;;;;;4958578;28;20177;-81
2023/08/04 09:42:48;;;;;;;3.95;1.30;;;19.40;99.90;;;;;;4944824;28;20216;-84
2023/08/04 09:45:18;;;;;;;5.53;1.30;;;19.30;99.90;;;;;;4952818;28;20189;-84
2023/08/04 09:47:51;;;;;;;2.60;1.20;;;19.20;99.90;;;;;;4939229;29;20224;-83
2023/08/04 09:50:20;;;;;;;3.45;1.30;;;19.20;99.90;;;;;;4955662;28;20738;-83
2023/08/04 09:53:00;;;;;;;4.57;1.52;;;19.10;99.90;;;;;;4968266;28;20254;-83
2023/08/04 09:55:29;;;;;;;5.82;1.20;;;18.90;99.90;;;;;;4951372;28;20294;-84
2023/08/04 09:57:59;;;;;;;2.30;1.50;;;18.70;99.90;;;;;;4964330;28;20188;-85
2023/08/04 10:00:27;;;;;;;3.30;1.30;;;18.60;99.90;;;;;;4964724;28;20187;-84
2023/08/04 10:02:55;;;;;;;3.78;1.30;;;18.60;99.90;;;;;;4960138;28;20390;-84
2023/08/04 10:05:27;;;;;;;1.88;1.30;;;18.60;99.90;;;;;;4960473;28;20184;-82
2023/08/04 10:07:56;;;;;;;4.25;1.20;;;18.60;99.90;;;;;;4945136;28;20193;-82
2023/08/04 10:10:23;;;;;;;2.40;1.10;;;18.50;99.90;;;;;;4962451;28;20185;-83
2023/08/04 10:12:54;;;;;;;2.20;1.30;;;18.50;99.90;;;;;;4963268;28;20191;-84
2023/08/04 10:15:21;;;;;;;3.97;1.20;;;18.40;99.90;;;;;;4932611;28;20230;-84
2023/08/04 10:17:51;;;;;;;2.17;1.35;;;18.40;99.90;;;;;;4964562;28;20654;-84
2023/08/04 10:20:21;;;;;;;4.50;1.23;;;18.70;99.90;;;;;;5027819;28;20924;-83
2023/08/04 10:22:49;;;;;;;6.32;1.45;;;18.90;99.90;;;;;;4965207;28;20273;-84
2023/08/04 10:25:17;;;;;;;3.22;1.20;;;19.00;99.90;;;;;;4963359;28;20226;-84
2023/08/04 10:27:48;;;;;;;4.05;1.45;;;19.10;99.90;;;;;;4965529;28;20253;-82
2023/08/04 10:30:15;;;;;;;2.42;1.17;;;19.10;99.90;;;;;;4989016;28;20281;-83
2023/08/04 10:32:48;;;;;;;2.10;1.20;;;19.30;99.90;;;;;;4956937;28;20594;-84
2023/08/04 10:35:22;;;;;;;3.42;1.10;;;19.30;99.90;;;;;;4957326;28;20590;-84
2023/08/04 10:37:58;;;;;;;1.30;1.10;;;19.30;99.90;;;;;;4962520;28;20729;-85
2023/08/04 10:40:33;;;;;;;1.95;1.20;;;19.30;99.90;;;;;;4963363;28;20211;-83
2023/08/04 10:43:08;;;;;;;2.45;1.00;;;19.30;99.90;;;;;;4962319;28;20195;-83
2023/08/04 10:46:03;;;;;;;2.78;1.00;;;19.30;99.90;;;;;;4963653;28;20211;-84
2023/08/04 10:48:36;;;;;;;1.50;1.02;;;19.30;99.90;;;;;;4962320;28;20286;-84
2023/08/04 10:51:04;;;;;;;3.17;1.05;;;19.30;99.90;;;;;;4965050;28;20733;-84
2023/08/04 10:53:32;;;;;;;2.70;1.10;;;19.30;99.90;;;;;;4963898;28;20293;-85
2023/08/04 10:56:01;;;;;;;4.95;1.20;;;19.40;99.90;;;;;;4947888;28;20631;-84
2023/08/04 10:58:31;;;;;;;2.47;1.10;;;19.50;99.90;;;;;;4964316;28;20233;-83
2023/08/04 11:00:59;;;;;;;1.88;1.20;;;19.40;99.90;;;;;;4977831;28;20212;-85
2023/08/04 11:03:36;;;;;;;1.80;1.10;;;19.40;99.90;;;;;;4960835;28;20674;-86
2023/08/04 11:06:04;;;;;;;2.42;0.93;;;19.30;99.90;;;;;;4962290;28;20188;-83
2023/08/04 11:08:32;;;;;;;1.63;1.17;;;19.30;99.90;;;;;;4963343;28;20295;-84
2023/08/04 11:11:01;;;;;;;7.70;1.25;;;19.30;99.90;;;;;;4963970;28;20291;-84
2023/08/04 11:13:28;;;;;;;4.13;1.48;;;19.50;99.90;;;;;;4963595;28;20211;-84
2023/08/04 11:15:56;;;;;;;3.03;1.30;;;19.80;99.90;;;;;;4965444;28;20194;-84
2023/08/04 11:18:27;;;;;;;2.63;1.20;;;20.30;99.90;;;;;;4967140;28;20184;-83
2023/08/04 11:21:00;;;;;;;1.33;1.10;;;20.70;99.90;;;;;;4967980;28;20214;-83
2023/08/04 11:23:30;;;;;;;1.83;1.20;;;20.90;99.90;;;;;;4976012;28;20286;-84
2023/08/04 11:25:59;;;;;;;4.00;0.93;;;21.00;99.90;;;;;;4967260;28;20208;-83
2023/08/04 11:28:27;;;;;;;4.78;1.00;;;21.10;99.90;;;;;;4966992;28;20307;-85
2023/08/04 11:31:08;;;;;;;3.08;0.80;;;21.30;99.90;;;;;;4967102;28;20291;-85
2023/08/04 11:33:44;;;;;;;4.10;0.95;;;21.40;99.90;;;;;;4954649;28;20180;-83
2023/08/04 11:36:12;;;;;;;1.38;0.90;;;21.60;99.90;;;;;;4954572;28;20191;-84
2023/08/04 11:38:46;;;;;;;1.00;0.90;;;21.50;99.90;;;;;;4967280;28;20698;-83
2023/08/04 11:41:22;;;;;;;1.48;0.80;;;21.40;99.90;;;;;;4968110;28;20204;-84
2023/08/04 11:43:50;;;;;;;1.83;0.90;;;21.20;99.90;;;;;;4967740;28;20184;-84
2023/08/04 11:46:18;;;;;;;3.33;1.00;;;21.20;99.90;;;;;;4950529;28;20842;-83
2023/08/04 11:48:48;;;;;;;2.60;0.90;;;21.30;99.90;;;;;;4967027;28;20257;-84
2023/08/04 11:51:16;;;;;;;3.25;1.00;;;21.70;99.90;;;;;;4977780;28;20195;-85
2023/08/04 11:53:45;;;;;;;4.30;1.10;;;21.80;99.90;;;;;;4967906;28;20187;-83
2023/08/04 11:56:12;;;;;;;2.50;0.90;;;21.70;99.90;;;;;;4966068;28;20192;-85
2023/08/04 11:59:11;;;;;;;2.08;0.90;;;21.40;99.90;;;;;;4967836;28;20275;-83
2023/08/04 12:01:39;;;;;;;4.10;1.10;;;21.20;99.90;;;;;;4967424;28;20200;-84
2023/08/04 12:04:27;;;;;;;6.43;1.05;;;21.20;99.90;;;;;;4966699;28;20287;-81
2023/08/04 12:07:05;;;;;;;2.88;0.88;;;21.60;99.90;;;;;;4974198;28;20180;-83
2023/08/04 12:09:34;;;;;;;2.88;1.10;;;21.60;99.90;;;;;;4966006;28;20195;-84
2023/08/04 12:12:03;;;;;;;2.70;0.93;;;21.50;99.90;;;;;;4962114;28;21866;-85
2023/08/04 12:14:30;;;;;;;0.93;0.80;;;21.40;99.90;;;;;;4966520;28;20204;-83
2023/08/04 12:17:05;;;;;;;2.33;0.90;;;21.30;99.90;;;;;;4963664;28;20203;-82
2023/08/04 12:19:33;;;;;;;2.00;0.90;;;21.30;99.90;;;;;;4967536;28;20646;-86
2023/08/04 12:22:03;;;;;;;2.85;0.93;;;21.80;99.90;;;;;;4966835;28;20689;-84
2023/08/04 12:24:32;;;;;;;6.45;0.90;;;21.90;99.90;;;;;;4967089;28;20564;-85
2023/08/04 12:27:00;;;;;;;1.88;0.80;;;22.00;99.90;;;;;;4966466;28;20207;-85
2023/08/04 12:29:28;;;;;;;1.05;0.90;;;21.80;99.90;;;;;;4965989;28;20658;-84
2023/08/04 12:31:57;;;;;;;2.40;1.10;;;21.60;99.90;;;;;;4965576;28;20200;-82
2023/08/04 12:34:25;;;;;;;2.45;0.77;;;21.40;99.90;;;;;;4962320;28;20206;-85
2023/08/04 12:36:54;;;;;;;2.75;0.85;;;21.40;99.90;;;;;;4977036;28;20833;-81
2023/08/04 12:39:21;;;;;;;1.00;0.82;;;21.50;99.90;;;;;;4965861;28;20647;-84
2023/08/04 12:41:49;;;;;;;1.35;0.85;;;21.70;99.90;;;;;;4974604;28;20235;-83
2023/08/04 12:44:17;;;;;;;1.65;0.82;;;22.00;99.90;;;;;;4967236;28;20200;-84
2023/08/04 12:46:45;;;;;;;4.20;1.05;;;22.40;99.90;;;;;;4966177;28;20192;-84
2023/08/04 12:49:13;;;;;;;1.10;0.80;;;22.10;99.90;;;;;;4967191;28;20279;-85
2023/08/04 12:51:40;;;;;;;10.35;1.35;;;21.90;99.90;;;;;;4965964;28;20239;-85
2023/08/04 12:54:08;;;;;;;4.20;1.02;;;21.80;99.90;;;;;;4963996;28;20195;-85